Time,TemperatureF,DewpointF,PressureIn,WindDirection,WindDirectionDegrees,WindSpeedMPH,WindSpeedGustMPH,Humidity,HourlyPrecipIn,Conditions,Clouds,dailyrainin,SolarRadiationWatts/m^2,SoftwareType,DateUTC
2013-10-05 00:22:00,48.0,33.0,-100.00,East,89,1.0,5.0,55,0.00,,,0.00,235.000000,,2013-10-05 00:22:00,
2013-10-05 00:32:00,48.0,33.0,-100.00,East,89,1.0,5.0,55,0.00,,,0.00,235.000000,,2013-10-05 00:32:00,
2013-10-05 00:42:00,48.0,33.0,-100.00,East,89,1.0,5.0,55,0.00,,,0.00,235.000000,,2013-10-05 00:42:00,
2013-10-05 00:52:00,48.0,33.0,-100.00,East,89,1.0,5.0,55,0.00,,,0.00,235.000000,,2013-10-05 00:52:00,
2013-10-05 01:21:00,51.0,34.0,-100.00,South,181,1.0,5.0,52,0.00,,,0.00,224.000000,,2013-10-05 01:21:00,
2013-10-05 01:32:00,51.0,34.0,-100.00,South,181,1.0,5.0,52,0.00,,,0.00,224.000000,,2013-10-05 01:32:00,
2013-10-05 01:43:00,51.0,34.0,-100.00,South,181,1.0,5.0,52,0.00,,,0.00,224.000000,,2013-10-05 01:43:00,
2013-10-05 01:52:00,51.0,34.0,-100.00,South,181,1.0,5.0,52,0.00,,,0.00,224.000000,,2013-10-05 01:52:00,
2013-10-05 02:22:00,46.0,32.0,-100.00,NW,309,1.0,4.0,57,0.00,,,0.00,112.000000,,2013-10-05 02:22:00,
2013-10-05 02:32:00,46.0,32.0,-100.00,NW,309,1.0,4.0,57,0.00,,,0.00,112.000000,,2013-10-05 02:32:00,
2013-10-05 02:42:00,46.0,32.0,-100.00,NW,309,1.0,4.0,57,0.00,,,0.00,112.000000,,2013-10-05 02:42:00,
2013-10-05 02:52:00,46.0,32.0,-100.00,NW,309,1.0,4.0,57,0.00,,,0.00,112.000000,,2013-10-05 02:52:00,
2013-10-05 03:23:00,42.0,33.0,-100.00,SE,132,0.0,5.0,69,0.00,,,0.00,14.000000,,2013-10-05 03:23:00,
2013-10-05 03:34:00,42.0,33.0,-100.00,SE,132,0.0,5.0,69,0.00,,,0.00,14.000000,,2013-10-05 03:34:00,
2013-10-05 03:45:00,42.0,33.0,-100.00,SE,132,0.0,5.0,69,0.00,,,0.00,14.000000,,2013-10-05 03:45:00,
2013-10-05 03:55:00,42.0,33.0,-100.00,SE,132,0.0,5.0,69,0.00,,,0.00,14.000000,,2013-10-05 03:55:00,
2013-10-05 04:24:00,39.0,32.0,-100.00,SSE,164,0.0,2.0,76,0.00,,,0.00,0.000000,,2013-10-05 04:24:00,
2013-10-05 04:33:00,39.0,32.0,-100.00,SSE,164,0.0,2.0,76,0.00,,,0.00,0.000000,,2013-10-05 04:33:00,
2013-10-05 04:43:00,39.0,32.0,-100.00,SSE,164,0.0,2.0,76,0.00,,,0.00,0.000000,,2013-10-05 04:43:00,
2013-10-05 04:53:00,39.0,32.0,-100.00,SSE,164,0.0,2.0,76,0.00,,,0.00,0.000000,,2013-10-05 04:53:00,
2013-10-05 05:22:00,37.0,31.0,-100.00,SE,124,0.0,1.0,79,0.00,,,0.00,0.000000,,2013-10-05 05:22:00,
2013-10-05 05:34:00,37.0,31.0,-100.00,SE,124,0.0,1.0,79,0.00,,,0.00,0.000000,,2013-10-05 05:34:00,
2013-10-05 05:43:00,37.0,31.0,-100.00,SE,124,0.0,1.0,79,0.00,,,0.00,0.000000,,2013-10-05 05:43:00,
2013-10-05 05:52:00,37.0,31.0,-100.00,SE,124,0.0,1.0,79,0.00,,,0.00,0.000000,,2013-10-05 05:52:00,
2013-10-05 06:22:00,36.0,31.0,-100.00,SSE,155,0.0,2.0,81,0.00,,,0.00,0.000000,,2013-10-05 06:22:00,
2013-10-05 06:32:00,36.0,31.0,-100.00,SSE,155,0.0,2.0,81,0.00,,,0.00,0.000000,,2013-10-05 06:32:00,
2013-10-05 06:42:00,36.0,31.0,-100.00,SSE,155,0.0,2.0,81,0.00,,,0.00,0.000000,,2013-10-05 06:42:00,
2013-10-05 06:52:00,36.0,31.0,-100.00,SSE,155,0.0,2.0,81,0.00,,,0.00,0.000000,,2013-10-05 06:52:00,
2013-10-05 07:22:00,35.0,30.0,-100.00,SSE,163,0.0,1.0,82,0.00,,,0.00,0.000000,,2013-10-05 07:22:00,
2013-10-05 07:32:00,35.0,30.0,-100.00,SSE,163,0.0,1.0,82,0.00,,,0.00,0.000000,,2013-10-05 07:32:00,
2013-10-05 07:42:00,35.0,30.0,-100.00,SSE,163,0.0,1.0,82,0.00,,,0.00,0.000000,,2013-10-05 07:42:00,
2013-10-05 07:52:00,35.0,30.0,-100.00,SSE,163,0.0,1.0,82,0.00,,,0.00,0.000000,,2013-10-05 07:52:00,
2013-10-05 08:23:00,34.0,29.0,-100.00,South,181,0.0,1.0,83,0.00,,,0.00,0.000000,,2013-10-05 08:23:00,
2013-10-05 08:32:00,34.0,29.0,-100.00,South,181,0.0,1.0,83,0.00,,,0.00,0.000000,,2013-10-05 08:32:00,
2013-10-05 08:42:00,34.0,29.0,-100.00,South,181,0.0,1.0,83,0.00,,,0.00,0.000000,,2013-10-05 08:42:00,
2013-10-05 08:52:00,34.0,29.0,-100.00,South,181,0.0,1.0,83,0.00,,,0.00,0.000000,,2013-10-05 08:52:00,
2013-10-05 09:21:00,35.0,31.0,-100.00,SE,146,0.0,3.0,85,0.00,,,0.00,0.000000,,2013-10-05 09:21:00,
2013-10-05 09:33:00,35.0,31.0,-100.00,SE,146,0.0,3.0,85,0.00,,,0.00,0.000000,,2013-10-05 09:33:00,
2013-10-05 09:43:00,35.0,31.0,-100.00,SE,146,0.0,3.0,85,0.00,,,0.00,0.000000,,2013-10-05 09:43:00,
2013-10-05 09:54:00,35.0,31.0,-100.00,SE,146,0.0,3.0,85,0.00,,,0.00,0.000000,,2013-10-05 09:54:00,
2013-10-05 10:23:00,33.0,30.0,-100.00,SSW,203,0.0,2.0,87,0.00,,,0.00,0.000000,,2013-10-05 10:23:00,
2013-10-05 10:32:00,33.0,30.0,-100.00,SSW,203,0.0,2.0,87,0.00,,,0.00,0.000000,,2013-10-05 10:32:00,
2013-10-05 10:43:00,33.0,30.0,-100.00,SSW,203,0.0,2.0,87,0.00,,,0.00,0.000000,,2013-10-05 10:43:00,
2013-10-05 10:53:00,33.0,30.0,-100.00,SSW,203,0.0,2.0,87,0.00,,,0.00,0.000000,,2013-10-05 10:53:00,
2013-10-05 11:22:00,33.0,30.0,-100.00,South,181,0.0,2.0,87,0.00,,,0.00,0.000000,,2013-10-05 11:22:00,
2013-10-05 11:33:00,33.0,30.0,-100.00,South,181,0.0,2.0,87,0.00,,,0.00,0.000000,,2013-10-05 11:33:00,
2013-10-05 11:42:00,33.0,30.0,-100.00,South,181,0.0,2.0,87,0.00,,,0.00,0.000000,,2013-10-05 11:42:00,
2013-10-05 11:52:00,33.0,30.0,-100.00,South,181,0.0,2.0,87,0.00,,,0.00,0.000000,,2013-10-05 11:52:00,
2013-10-05 12:22:00,33.0,30.0,-100.00,SSE,166,0.0,2.0,88,0.00,,,0.00,0.000000,,2013-10-05 12:22:00,
2013-10-05 12:32:00,33.0,30.0,-100.00,SSE,166,0.0,2.0,88,0.00,,,0.00,0.000000,,2013-10-05 12:32:00,
2013-10-05 12:42:00,33.0,30.0,-100.00,SSE,166,0.0,2.0,88,0.00,,,0.00,0.000000,,2013-10-05 12:42:00,
2013-10-05 12:52:00,33.0,30.0,-100.00,SSE,166,0.0,2.0,88,0.00,,,0.00,0.000000,,2013-10-05 12:52:00,
2013-10-05 13:22:00,33.0,30.0,-100.00,SSE,162,0.0,3.0,89,0.00,,,0.00,0.000000,,2013-10-05 13:22:00,
2013-10-05 13:32:00,33.0,30.0,-100.00,SSE,162,0.0,3.0,89,0.00,,,0.00,0.000000,,2013-10-05 13:32:00,
2013-10-05 13:42:00,33.0,30.0,-100.00,SSE,162,0.0,3.0,89,0.00,,,0.00,0.000000,,2013-10-05 13:42:00,
2013-10-05 13:52:00,33.0,30.0,-100.00,SSE,162,0.0,3.0,89,0.00,,,0.00,0.000000,,2013-10-05 13:52:00,
2013-10-05 14:22:00,32.0,29.0,-100.00,SSE,165,1.0,2.0,89,0.00,,,0.00,0.000000,,2013-10-05 14:22:00,
2013-10-05 14:32:00,32.0,29.0,-100.00,SSE,165,1.0,2.0,89,0.00,,,0.00,0.000000,,2013-10-05 14:32:00,
2013-10-05 14:42:00,32.0,29.0,-100.00,SSE,165,1.0,2.0,89,0.00,,,0.00,0.000000,,2013-10-05 14:42:00,
2013-10-05 14:52:00,32.0,29.0,-100.00,SSE,165,1.0,2.0,89,0.00,,,0.00,0.000000,,2013-10-05 14:52:00,
2013-10-05 15:22:00,33.0,31.0,-100.00,SE,141,0.0,0.0,92,0.00,,,0.00,0.000000,,2013-10-05 15:22:00,
2013-10-05 15:33:00,33.0,31.0,-100.00,SE,141,0.0,0.0,92,0.00,,,0.00,0.000000,,2013-10-05 15:33:00,
2013-10-05 15:44:00,33.0,31.0,-100.00,SE,141,0.0,0.0,92,0.00,,,0.00,0.000000,,2013-10-05 15:44:00,
2013-10-05 15:53:00,33.0,31.0,-100.00,SE,141,0.0,0.0,92,0.00,,,0.00,0.000000,,2013-10-05 15:53:00,
2013-10-05 16:23:00,33.0,32.0,-100.00,SSW,194,0.0,2.0,95,0.00,,,0.00,0.000000,,2013-10-05 16:23:00,
2013-10-05 16:33:00,33.0,32.0,-100.00,SSW,194,0.0,2.0,95,0.00,,,0.00,0.000000,,2013-10-05 16:33:00,
2013-10-05 16:43:00,33.0,32.0,-100.00,SSW,194,0.0,2.0,95,0.00,,,0.00,0.000000,,2013-10-05 16:43:00,
2013-10-05 16:53:00,33.0,32.0,-100.00,SSW,194,0.0,2.0,95,0.00,,,0.00,0.000000,,2013-10-05 16:53:00,
2013-10-05 17:22:00,33.0,32.0,-100.00,South,187,0.0,1.0,95,0.00,,,0.00,13.000000,,2013-10-05 17:22:00,
2013-10-05 17:33:00,33.0,32.0,-100.00,South,187,0.0,1.0,95,0.00,,,0.00,13.000000,,2013-10-05 17:33:00,
2013-10-05 17:42:00,33.0,32.0,-100.00,South,187,0.0,1.0,95,0.00,,,0.00,13.000000,,2013-10-05 17:42:00,
2013-10-05 17:52:00,33.0,32.0,-100.00,South,187,0.0,1.0,95,0.00,,,0.00,13.000000,,2013-10-05 17:52:00,
2013-10-05 18:22:00,37.0,35.0,-100.00,West,262,0.0,0.0,92,0.00,,,0.00,71.000000,,2013-10-05 18:22:00,
2013-10-05 18:32:00,37.0,35.0,-100.00,West,262,0.0,0.0,92,0.00,,,0.00,71.000000,,2013-10-05 18:32:00,
2013-10-05 18:42:00,37.0,35.0,-100.00,West,262,0.0,0.0,92,0.00,,,0.00,71.000000,,2013-10-05 18:42:00,
2013-10-05 18:52:00,37.0,35.0,-100.00,West,262,0.0,0.0,92,0.00,,,0.00,71.000000,,2013-10-05 18:52:00,
2013-10-05 19:22:00,41.0,36.0,-100.00,NNE,20,0.0,3.0,81,0.00,,,0.00,123.000000,,2013-10-05 19:22:00,
2013-10-05 19:32:00,41.0,36.0,-100.00,NNE,20,0.0,3.0,81,0.00,,,0.00,123.000000,,2013-10-05 19:32:00,
2013-10-05 19:42:00,41.0,36.0,-100.00,NNE,20,0.0,3.0,81,0.00,,,0.00,123.000000,,2013-10-05 19:42:00,
2013-10-05 19:52:00,41.0,36.0,-100.00,NNE,20,0.0,3.0,81,0.00,,,0.00,123.000000,,2013-10-05 19:52:00,
2013-10-05 20:22:00,43.0,37.0,-100.00,WNW,287,1.0,5.0,80,0.00,,,0.00,137.000000,,2013-10-05 20:22:00,
2013-10-05 20:32:00,43.0,37.0,-100.00,WNW,287,1.0,5.0,80,0.00,,,0.00,137.000000,,2013-10-05 20:32:00,
2013-10-05 20:42:00,43.0,37.0,-100.00,WNW,287,1.0,5.0,80,0.00,,,0.00,137.000000,,2013-10-05 20:42:00,
2013-10-05 20:52:00,43.0,37.0,-100.00,WNW,287,1.0,5.0,80,0.00,,,0.00,137.000000,,2013-10-05 20:52:00,
2013-10-05 21:21:00,45.0,37.0,-100.00,West,259,2.0,7.0,72,0.00,,,0.00,149.000000,,2013-10-05 21:21:00,
2013-10-05 21:33:00,45.0,37.0,-100.00,West,259,2.0,7.0,72,0.00,,,0.00,149.000000,,2013-10-05 21:33:00,
2013-10-05 21:44:00,45.0,37.0,-100.00,West,259,2.0,7.0,72,0.00,,,0.00,149.000000,,2013-10-05 21:44:00,
2013-10-05 21:54:00,45.0,37.0,-100.00,West,259,2.0,7.0,72,0.00,,,0.00,149.000000,,2013-10-05 21:54:00,
2013-10-05 22:24:00,45.0,37.0,-100.00,SSW,199,0.0,7.0,72,0.00,,,0.00,78.000000,,2013-10-05 22:24:00,
2013-10-05 22:33:00,45.0,37.0,-100.00,SSW,199,0.0,7.0,72,0.00,,,0.00,78.000000,,2013-10-05 22:33:00,
2013-10-05 22:42:00,45.0,37.0,-100.00,SSW,199,0.0,7.0,72,0.00,,,0.00,78.000000,,2013-10-05 22:42:00,
2013-10-05 22:53:00,45.0,37.0,-100.00,SSW,199,0.0,7.0,72,0.00,,,0.00,78.000000,,2013-10-05 22:53:00,
2013-10-05 23:22:00,45.0,37.0,-100.00,NW,316,0.0,3.0,72,0.00,,,0.00,96.000000,,2013-10-05 23:22:00,
2013-10-05 23:33:00,45.0,37.0,-100.00,NW,316,0.0,3.0,72,0.00,,,0.00,96.000000,,2013-10-05 23:33:00,
2013-10-05 23:42:00,45.0,37.0,-100.00,NW,316,0.0,3.0,72,0.00,,,0.00,96.000000,,2013-10-05 23:42:00,
2013-10-05 23:53:00,45.0,37.0,-100.00,NW,316,0.0,3.0,72,0.00,,,0.00,96.000000,,2013-10-05 23:53:00,